Time;durP1;ratioP1;P1;durP2;ratioP2;P2;SDS_P1;SDS_P2;PMS_P1;PMS_P2;Temp;Humidity;BMP_temperature;BMP_pressure;BME280_temperature;BME280_humidity;BME280_pressure;Samples;Min_cycle;Max_cycle;Signal;HPM_P1;HPM_P2
2022/09/10 00:00:33;;;;;;;1.00;0.57;;;;;;;12.85;97.11;95446.50;5016559;28;20190;-79
2022/09/10 00:03:00;;;;;;;4.10;0.67;;;;;;;12.95;96.39;95440.13;5018729;28;20193;-79
2022/09/10 00:05:26;;;;;;;1.30;0.60;;;;;;;13.02;96.52;95448.13;5016998;28;20193;-80
2022/09/10 00:07:52;;;;;;;0.97;0.60;;;;;;;13.00;97.03;95444.88;5016977;28;20210;-78
2022/09/10 00:10:17;;;;;;;3.60;0.90;;;;;;;12.95;98.10;95450.56;5000084;28;20195;-79
2022/09/10 00:12:42;;;;;;;3.13;1.20;;;;;;;12.83;99.78;95456.28;5016867;28;20194;-80
2022/09/10 00:15:09;;;;;;;2.93;1.07;;;;;;;12.86;100.00;95454.16;5033979;28;20654;-79
2022/09/10 00:17:35;;;;;;;2.20;0.80;;;;;;;12.83;100.00;95451.06;5016952;28;20217;-78
2022/09/10 00:20:01;;;;;;;2.37;1.20;;;;;;;12.85;100.00;95456.91;5016234;28;20194;-80
2022/09/10 00:22:26;;;;;;;1.80;0.80;;;;;;;12.96;99.99;95448.75;5016461;28;20198;-77
2022/09/10 00:24:58;;;;;;;3.70;0.80;;;;;;;13.12;97.95;95450.53;5015804;28;20187;-80
2022/09/10 00:27:24;;;;;;;2.93;0.90;;;;;;;13.06;98.91;95446.78;5000048;28;20214;-79
2022/09/10 00:29:53;;;;;;;2.60;0.80;;;;;;;13.02;98.59;95442.91;5016987;28;20279;-80
2022/09/10 00:32:20;;;;;;;2.53;0.93;;;;;;;13.14;98.19;95446.78;5017128;28;20178;-79
2022/09/10 00:34:46;;;;;;;2.60;0.97;;;;;;;13.11;98.69;95452.34;5000329;28;20202;-80
2022/09/10 00:37:12;;;;;;;1.83;1.10;;;;;;;13.17;97.63;95459.50;5034638;28;20199;-80
2022/09/10 00:39:37;;;;;;;2.87;0.80;;;;;;;13.19;97.91;95461.94;5016887;28;20240;-80
2022/09/10 00:42:02;;;;;;;2.13;0.93;;;;;;;13.11;98.42;95465.38;5016486;28;20193;-81
2022/09/10 00:44:38;;;;;;;2.97;0.90;;;;;;;13.03;99.56;95465.38;5013053;28;20202;-80
2022/09/10 00:47:05;;;;;;;5.23;1.20;;;;;;;12.93;100.00;95462.94;5019745;28;20211;-80
2022/09/10 00:49:36;;;;;;;2.43;1.10;;;;;;;13.03;99.51;95462.78;5001071;28;20198;-81
2022/09/10 00:52:02;;;;;;;1.53;0.90;;;;;;;12.94;99.80;95471.56;5000193;28;20194;-81
2022/09/10 00:54:29;;;;;;;2.53;1.10;;;;;;;12.98;99.44;95478.88;5000163;28;20221;-79
2022/09/10 00:56:58;;;;;;;2.50;1.10;;;;;;;12.93;99.81;95480.38;5000129;28;20202;-82
2022/09/10 00:59:25;;;;;;;2.70;1.00;;;;;;;12.91;98.36;95482.34;5012896;28;20202;-80
2022/09/10 01:01:51;;;;;;;1.97;0.63;;;;;;;12.82;96.94;95472.88;4996846;28;20221;-82
2022/09/10 01:04:16;;;;;;;1.50;0.77;;;;;;;12.76;95.72;95456.91;4999196;28;20234;-81
2022/09/10 01:06:44;;;;;;;0.87;0.50;;;;;;;12.69;95.24;95455.13;4998718;28;20210;-81
2022/09/10 01:09:10;;;;;;;0.60;0.60;;;;;;;12.75;95.28;95454.47;4998567;28;20205;-80
2022/09/10 01:11:57;;;;;;;2.80;0.43;;;;;;;12.84;95.50;95460.50;4998718;28;20209;-80
2022/09/10 01:14:47;;;;;;;1.70;0.53;;;;;;;12.55;97.64;95448.78;5032139;28;20186;-80
2022/09/10 01:17:28;;;;;;;1.20;0.40;;;;;;;12.57;98.04;95456.44;5030582;28;20721;-80
2022/09/10 01:20:15;;;;;;;1.20;0.50;;;;;;;12.65;98.46;95456.44;4998567;28;20190;-81
2022/09/10 01:23:16;;;;;;;0.83;0.60;;;;;;;12.67;97.97;95450.09;5033006;28;20194;-81
2022/09/10 01:26:01;;;;;;;1.13;0.50;;;;;;;12.70;97.68;95451.53;5009531;28;20285;-81
2022/09/10 01:28:34;;;;;;;0.80;0.30;;;;;;;12.71;96.84;95450.56;5015798;28;20306;-81
2022/09/10 01:31:09;;;;;;;0.90;0.40;;;;;;;12.67;98.25;95442.25;5015441;28;20226;-81
2022/09/10 01:33:46;;;;;;;1.00;0.60;;;;;;;12.71;98.56;95446.16;5029902;28;20252;-80
2022/09/10 01:36:19;;;;;;;3.80;0.70;;;;;;;12.71;99.55;95438.34;5011801;28;20615;-81
2022/09/10 01:38:45;;;;;;;4.23;0.70;;;;;;;12.83;99.16;95441.44;4999304;28;20190;-79
2022/09/10 01:41:12;;;;;;;1.20;0.57;;;;;;;12.93;98.70;95438.69;4997984;28;20208;-80
2022/09/10 01:43:37;;;;;;;3.37;0.80;;;;;;;12.82;98.88;95433.81;4998108;28;20194;-79
2022/09/10 01:46:32;;;;;;;1.40;0.60;;;;;;;12.88;98.27;95438.34;5014137;28;20277;-80
2022/09/10 01:49:08;;;;;;;0.70;0.70;;;;;;;12.86;99.03;95429.88;5010956;28;20207;-79
2022/09/10 01:51:52;;;;;;;1.63;0.60;;;;;;;12.94;98.43;95424.66;5012572;28;20187;-80
2022/09/10 01:54:41;;;;;;;1.77;0.67;;;;;;;12.92;98.82;95432.66;5028390;28;20523;-80
2022/09/10 01:57:15;;;;;;;1.53;0.70;;;;;;;12.84;99.85;95437.06;5031447;28;20598;-80
2022/09/10 02:00:00;;;;;;;1.77;0.90;;;;;;;12.83;99.33;95430.22;5007417;28;20197;-79
2022/09/10 02:02:31;;;;;;;1.10;0.80;;;;;;;12.79;100.00;95423.69;5012382;28;20186;-81
2022/09/10 02:04:57;;;;;;;1.30;0.77;;;;;;;12.83;99.74;95428.41;4997719;28;20199;-80
2022/09/10 02:07:23;;;;;;;0.90;0.60;;;;;;;12.99;98.98;95425.00;4998084;28;20670;-80
2022/09/10 02:09:49;;;;;;;1.00;0.73;;;;;;;12.62;100.00;95423.69;4996887;28;20194;-80
2022/09/10 02:12:20;;;;;;;1.83;0.90;;;;;;;12.67;100.00;95424.03;5014168;28;20193;-81
2022/09/10 02:14:54;;;;;;;2.80;0.67;;;;;;;12.67;100.00;95421.41;5013888;28;20269;-81
2022/09/10 02:17:21;;;;;;;1.43;0.73;;;;;;;12.62;100.00;95430.69;4996267;28;20275;-80
2022/09/10 02:19:50;;;;;;;1.03;0.80;;;;;;;12.55;100.00;95427.94;5013990;28;20190;-81
2022/09/10 02:22:15;;;;;;;2.37;0.80;;;;;;;12.60;100.00;95427.44;4997911;28;20186;-80
2022/09/10 02:24:43;;;;;;;3.17;0.70;;;;;;;12.65;100.00;95425.19;5013123;28;20194;-79
2022/09/10 02:27:09;;;;;;;0.93;0.60;;;;;;;12.54;100.00;95431.50;4997944;28;20241;-78
2022/09/10 02:29:34;;;;;;;1.17;0.77;;;;;;;12.57;100.00;95420.78;5013673;28;20686;-79
2022/09/10 02:32:00;;;;;;;0.93;0.77;;;;;;;12.52;100.00;95417.84;5013760;28;20269;-79
2022/09/10 02:34:25;;;;;;;0.67;0.67;;;;;;;12.60;100.00;95424.84;5013342;28;20187;-80
2022/09/10 02:36:51;;;;;;;1.70;0.80;;;;;;;12.64;100.00;95423.56;4997208;28;20206;-80
2022/09/10 02:39:16;;;;;;;3.77;0.80;;;;;;;12.60;100.00;95424.84;5009653;28;20334;-80
2022/09/10 02:41:42;;;;;;;4.40;1.30;;;;;;;12.59;100.00;95421.41;5015272;28;20220;-80
2022/09/10 02:44:07;;;;;;;0.90;0.50;;;;;;;12.53;100.00;95416.84;5013268;28;20186;-79
2022/09/10 02:46:33;;;;;;;1.10;0.70;;;;;;;12.54;100.00;95418.47;5013459;28;20670;-80
2022/09/10 02:48:58;;;;;;;1.33;0.70;;;;;;;12.64;100.00;95410.53;5013507;28;20206;-79
2022/09/10 02:51:23;;;;;;;1.47;0.80;;;;;;;12.69;100.00;95398.63;5013772;28;20226;-79
2022/09/10 02:53:49;;;;;;;1.27;0.70;;;;;;;12.63;100.00;95401.91;5013107;28;20204;-79
2022/09/10 02:56:14;;;;;;;1.07;0.50;;;;;;;12.62;100.00;95413.28;5013558;28;20388;-80
2022/09/10 02:58:40;;;;;;;0.90;0.70;;;;;;;12.68;100.00;95417.84;5013697;28;20195;-79
2022/09/10 03:01:07;;;;;;;2.03;1.40;;;;;;;12.70;100.00;95412.47;5012223;28;20265;-78
2022/09/10 03:03:33;;;;;;;1.43;0.80;;;;;;;12.72;100.00;95407.88;4997178;28;20197;-79
2022/09/10 03:05:58;;;;;;;1.87;0.60;;;;;;;12.80;100.00;95409.69;4995986;28;20190;-80
2022/09/10 03:08:24;;;;;;;0.70;0.57;;;;;;;12.75;100.00;95408.38;5013176;28;20234;-79
2022/09/10 03:10:49;;;;;;;1.37;0.83;;;;;;;12.71;100.00;95404.47;5013414;28;20190;-79
2022/09/10 03:13:14;;;;;;;1.43;0.50;;;;;;;12.79;100.00;95416.69;5013271;28;20200;-80
2022/09/10 03:15:41;;;;;;;1.03;0.70;;;;;;;12.75;100.00;95413.59;5012495;28;20198;-78
2022/09/10 03:18:08;;;;;;;0.97;0.70;;;;;;;12.81;100.00;95406.94;4996837;28;20221;-79
2022/09/10 03:20:33;;;;;;;1.07;0.63;;;;;;;12.72;100.00;95408.72;4997133;28;20208;-79
2022/09/10 03:22:58;;;;;;;3.47;0.70;;;;;;;12.59;100.00;95411.00;5017002;28;20194;-79
2022/09/10 03:25:24;;;;;;;0.77;0.60;;;;;;;12.72;100.00;95408.72;5000297;28;20187;-79
2022/09/10 03:27:49;;;;;;;2.00;0.70;;;;;;;12.74;100.00;95406.78;5016690;28;20232;-79
2022/09/10 03:30:14;;;;;;;0.63;0.63;;;;;;;12.70;100.00;95418.47;5017276;28;20646;-80
2022/09/10 03:32:40;;;;;;;1.63;0.70;;;;;;;12.76;100.00;95409.22;5000211;28;20222;-79
2022/09/10 03:35:05;;;;;;;1.50;0.67;;;;;;;12.63;100.00;95414.91;4999917;28;20577;-79
2022/09/10 03:37:31;;;;;;;3.00;0.80;;;;;;;12.61;100.00;95403.03;5016464;28;20273;-80
2022/09/10 03:39:57;;;;;;;3.10;0.67;;;;;;;12.68;100.00;95410.03;5034190;28;20225;-79
2022/09/10 03:42:23;;;;;;;0.77;0.77;;;;;;;12.53;100.00;95413.44;5016782;28;20186;-79
2022/09/10 03:44:48;;;;;;;1.27;0.67;;;;;;;12.56;100.00;95403.53;5014075;28;20201;-79
2022/09/10 03:47:14;;;;;;;2.03;0.70;;;;;;;12.53;100.00;95411.63;4999710;28;20218;-79
2022/09/10 03:49:39;;;;;;;2.53;0.73;;;;;;;12.48;100.00;95414.75;5000035;28;20570;-79
2022/09/10 03:52:05;;;;;;;3.27;1.00;;;;;;;12.38;100.00;95410.69;4999928;28;20198;-79
2022/09/10 03:54:30;;;;;;;1.17;0.73;;;;;;;12.33;100.00;95412.94;5015717;28;20277;-79
2022/09/10 03:56:55;;;;;;;1.27;0.60;;;;;;;12.30;100.00;95410.69;5016240;28;20214;-78
2022/09/10 03:59:20;;;;;;;2.17;0.90;;;;;;;12.39;100.00;95407.09;4999638;28;20191;-79
2022/09/10 04:01:46;;;;;;;3.27;0.70;;;;;;;12.40;100.00;95406.94;5014934;28;20229;-79
2022/09/10 04:04:15;;;;;;;2.47;0.70;;;;;;;12.36;100.00;95402.19;5019506;28;20190;-80
2022/09/10 04:06:40;;;;;;;2.47;0.90;;;;;;;12.46;100.00;95402.88;5019739;28;20260;-80
2022/09/10 04:09:05;;;;;;;2.33;0.73;;;;;;;12.41;100.00;95403.34;5015910;28;20604;-78
2022/09/10 04:11:30;;;;;;;1.43;0.80;;;;;;;12.50;100.00;95411.16;5015845;28;20237;-79
2022/09/10 04:13:56;;;;;;;2.37;1.00;;;;;;;12.46;99.77;95403.69;5015052;28;20190;-80
2022/09/10 04:16:22;;;;;;;1.43;0.80;;;;;;;12.52;100.00;95407.41;5015334;28;20216;-78
2022/09/10 04:18:48;;;;;;;3.20;0.80;;;;;;;12.63;99.70;95414.91;5015821;28;20195;-78
2022/09/10 04:21:13;;;;;;;2.20;1.07;;;;;;;12.63;100.00;95411.47;5015876;28;20248;-79
2022/09/10 04:23:41;;;;;;;3.90;1.07;;;;;;;12.59;100.00;95411.00;5015168;28;20283;-79
2022/09/10 04:26:14;;;;;;;1.27;1.10;;;;;;;12.60;100.00;95417.84;5013355;28;20190;-78
2022/09/10 04:28:40;;;;;;;2.97;0.90;;;;;;;12.63;100.00;95416.69;5007540;28;20288;-79
2022/09/10 04:31:05;;;;;;;2.40;1.20;;;;;;;12.61;100.00;95411.66;4999149;28;20278;-78
2022/09/10 04:33:32;;;;;;;1.40;0.80;;;;;;;12.65;100.00;95412.16;5013628;28;20583;-80
2022/09/10 04:35:59;;;;;;;2.47;1.00;;;;;;;12.71;100.00;95408.88;5015146;28;20198;-79
2022/09/10 04:38:25;;;;;;;1.47;0.80;;;;;;;12.72;100.00;95418.31;4998924;28;20286;-78
2022/09/10 04:40:51;;;;;;;3.50;0.90;;;;;;;12.75;100.00;95423.22;5015311;28;20293;-79
2022/09/10 04:43:17;;;;;;;2.53;1.07;;;;;;;12.77;100.00;95432.47;5015328;28;20183;-80
2022/09/10 04:45:43;;;;;;;2.07;0.90;;;;;;;12.70;100.00;95428.09;5015195;28;20186;-80
2022/09/10 04:48:08;;;;;;;2.83;0.90;;;;;;;12.70;100.00;95428.91;5015255;28;20224;-80
2022/09/10 04:50:34;;;;;;;2.70;1.47;;;;;;;12.75;100.00;95428.44;5015498;28;20285;-80
2022/09/10 04:53:00;;;;;;;1.90;1.00;;;;;;;12.72;100.00;95436.56;5015839;28;20213;-81
2022/09/10 04:55:25;;;;;;;3.67;0.93;;;;;;;12.71;100.00;95433.13;5014968;28;20260;-79
2022/09/10 04:57:50;;;;;;;1.27;0.90;;;;;;;12.81;100.00;95442.56;5014938;28;20272;-79
2022/09/10 05:00:16;;;;;;;3.33;0.93;;;;;;;12.75;100.00;95434.44;5016959;28;20276;-78
2022/09/10 05:02:42;;;;;;;1.87;0.80;;;;;;;12.73;100.00;95441.63;5020092;28;20178;-78
2022/09/10 05:05:07;;;;;;;2.90;0.90;;;;;;;12.77;100.00;95449.91;5040474;28;20253;-77
2022/09/10 05:07:33;;;;;;;1.13;0.77;;;;;;;12.85;100.00;95441.28;5042065;28;20275;-77
2022/09/10 05:09:58;;;;;;;2.10;0.90;;;;;;;12.80;100.00;95449.56;5041942;28;20208;-77
2022/09/10 05:12:23;;;;;;;7.30;1.00;;;;;;;12.73;100.00;95446.84;5022263;28;20190;-79
2022/09/10 05:14:49;;;;;;;2.60;0.80;;;;;;;12.81;100.00;95443.41;5017055;28;20187;-78
2022/09/10 05:17:14;;;;;;;3.23;0.80;;;;;;;12.89;100.00;95446.00;5034838;28;20253;-79
2022/09/10 05:19:39;;;;;;;2.63;0.80;;;;;;;12.83;100.00;95451.06;5015535;28;20654;-79
2022/09/10 05:22:05;;;;;;;1.70;0.80;;;;;;;12.71;100.00;95451.38;5016371;28;20182;-80
2022/09/10 05:24:33;;;;;;;1.60;0.80;;;;;;;12.82;100.00;95454.66;5015061;28;20182;-79
2022/09/10 05:26:58;;;;;;;2.20;0.80;;;;;;;12.75;100.00;95447.47;5014742;28;20194;-79
2022/09/10 05:29:23;;;;;;;2.17;0.80;;;;;;;12.81;100.00;95446.03;5014319;28;20317;-78
2022/09/10 05:31:49;;;;;;;4.03;0.83;;;;;;;12.86;100.00;95450.72;5032298;28;20183;-78
2022/09/10 05:34:14;;;;;;;0.90;0.60;;;;;;;12.94;99.98;95443.72;5013892;28;20221;-78
2022/09/10 05:36:40;;;;;;;1.47;0.80;;;;;;;12.88;100.00;95451.38;4997812;28;20245;-78
2022/09/10 05:39:05;;;;;;;2.00;0.90;;;;;;;12.92;100.00;95452.69;5014093;28;20528;-79
2022/09/10 05:41:31;;;;;;;1.30;0.87;;;;;;;12.95;100.00;95453.16;5015115;28;20197;-78
2022/09/10 05:43:57;;;;;;;2.17;0.93;;;;;;;12.98;99.62;95449.41;4999871;28;20209;-80
2022/09/10 05:46:23;;;;;;;1.60;0.90;;;;;;;12.98;99.11;95446.78;5016760;28;20684;-80
2022/09/10 05:48:49;;;;;;;2.20;0.97;;;;;;;12.99;99.62;95449.25;5017444;28;20305;-81
2022/09/10 05:51:15;;;;;;;1.27;0.90;;;;;;;13.08;99.37;95451.88;5000535;28;20206;-81
2022/09/10 05:53:46;;;;;;;3.37;0.97;;;;;;;12.91;100.00;95454.47;5014157;28;20186;-79
2022/09/10 05:56:11;;;;;;;2.07;0.97;;;;;;;12.91;100.00;95457.09;5019297;28;20178;-79
2022/09/10 05:58:37;;;;;;;2.03;0.80;;;;;;;12.99;100.00;95461.47;5040810;28;20221;-79
2022/09/10 06:01:02;;;;;;;1.07;0.90;;;;;;;13.05;99.92;95455.59;5032781;28;20345;-80
2022/09/10 06:03:27;;;;;;;1.03;0.60;;;;;;;13.05;100.00;95455.59;5006200;28;20209;-80
2022/09/10 06:05:54;;;;;;;1.10;1.00;;;;;;;13.05;100.00;95456.41;5009657;28;20205;-80
2022/09/10 06:08:20;;;;;;;4.10;0.97;;;;;;;13.14;100.00;95452.00;5028032;28;20206;-80
2022/09/10 06:11:05;;;;;;;2.23;1.03;;;;;;;13.16;100.00;95454.44;4996762;28;20273;-81
2022/09/10 06:13:31;;;;;;;3.63;1.20;;;;;;;13.26;99.09;95455.94;5014317;28;20214;-80
2022/09/10 06:15:57;;;;;;;1.93;0.87;;;;;;;13.24;98.34;95462.28;5013557;28;20185;-80
2022/09/10 06:18:22;;;;;;;3.03;0.90;;;;;;;13.45;97.71;95448.72;5027271;28;20685;-81
2022/09/10 06:20:48;;;;;;;3.03;0.80;;;;;;;13.51;96.01;95453.25;5013607;28;20186;-80
2022/09/10 06:23:17;;;;;;;0.80;0.60;;;;;;;13.78;95.53;95458.06;5014127;28;20186;-82
2022/09/10 06:25:43;;;;;;;5.70;0.90;;;;;;;13.79;94.77;95459.69;5013759;28;20229;-81
2022/09/10 06:28:09;;;;;;;1.37;0.80;;;;;;;13.78;94.11;95458.06;4997147;28;20214;-81
2022/09/10 06:30:34;;;;;;;1.57;0.83;;;;;;;13.89;94.21;95465.50;4995658;28;20746;-80
2022/09/10 06:33:01;;;;;;;2.10;0.80;;;;;;;14.07;93.26;95467.88;4993892;28;20238;-80
2022/09/10 06:35:26;;;;;;;2.50;1.00;;;;;;;14.17;92.21;95470.28;4995547;28;20179;-80
2022/09/10 06:37:53;;;;;;;2.23;0.70;;;;;;;14.47;91.54;95470.44;4996869;28;20673;-79
2022/09/10 06:40:19;;;;;;;1.47;0.70;;;;;;;14.60;89.52;95468.09;4996108;28;20186;-81
2022/09/10 06:42:44;;;;;;;3.33;0.90;;;;;;;14.78;88.37;95476.44;5013625;28;20186;-82
2022/09/10 06:45:09;;;;;;;3.47;0.80;;;;;;;14.78;88.33;95481.69;5013430;28;20236;-82
2022/09/10 06:47:35;;;;;;;4.88;1.60;;;;;;;14.85;87.77;95477.38;5030040;28;20244;-81
2022/09/10 06:50:00;;;;;;;2.58;0.80;;;;;;;15.01;86.38;95476.41;5013438;28;20198;-81
2022/09/10 06:52:28;;;;;;;6.25;1.20;;;;;;;15.32;85.59;95476.31;4997353;28;20186;-81
2022/09/10 06:54:53;;;;;;;3.17;1.10;;;;;;;15.11;85.74;95470.97;4996720;28;20292;-83
2022/09/10 06:57:18;;;;;;;2.92;0.90;;;;;;;14.93;84.54;95482.53;5010990;28;20674;-81
2022/09/10 06:59:44;;;;;;;2.30;0.90;;;;;;;15.02;86.12;95481.50;4995223;28;20218;-81
2022/09/10 07:02:11;;;;;;;2.20;0.95;;;;;;;15.04;85.36;95475.25;5011678;28;20186;-80
2022/09/10 07:04:36;;;;;;;2.20;1.00;;;;;;;15.09;85.50;95484.19;5010494;28;20273;-81
2022/09/10 07:07:02;;;;;;;2.65;0.90;;;;;;;15.11;84.90;95486.66;5013183;28;20218;-81
2022/09/10 07:09:27;;;;;;;1.23;0.68;;;;;;;14.94;86.43;95492.00;4996862;28;20186;-83
2022/09/10 07:11:52;;;;;;;4.32;1.00;;;;;;;14.84;89.45;95488.81;4996571;28;20217;-81
2022/09/10 07:14:18;;;;;;;1.80;0.77;;;;;;;14.92;86.45;95493.16;5012470;28;20210;-79
2022/09/10 07:16:44;;;;;;;3.42;0.70;;;;;;;14.77;87.36;95495.75;5012375;28;20694;-80
2022/09/10 07:19:12;;;;;;;3.40;0.85;;;;;;;14.95;87.72;95496.25;5012079;28;20989;-80
2022/09/10 07:21:38;;;;;;;3.53;0.90;;;;;;;14.78;87.85;95502.59;4996902;28;20280;-80
2022/09/10 07:24:04;;;;;;;4.07;0.80;;;;;;;14.82;87.44;95490.78;5012157;28;20240;-80
2022/09/10 07:26:30;;;;;;;2.53;1.08;;;;;;;15.00;87.16;95498.31;5012457;28;20285;-80
2022/09/10 07:28:56;;;;;;;3.67;1.17;;;;;;;14.80;85.49;95505.03;5012529;28;20182;-81
2022/09/10 07:31:26;;;;;;;2.85;1.15;;;;;;;14.83;85.11;95509.88;4998242;28;20279;-81
2022/09/10 07:33:51;;;;;;;4.38;1.70;;;;;;;14.96;84.49;95513.56;5012937;28;20720;-81
2022/09/10 07:36:17;;;;;;;7.25;1.30;;;;;;;14.97;85.38;95517.00;5013956;28;20197;-80
2022/09/10 07:38:43;;;;;;;2.65;1.30;;;;;;;15.04;82.56;95527.56;5012702;28;20182;-81
2022/09/10 07:41:12;;;;;;;6.03;1.45;;;;;;;15.12;82.67;95519.66;4996550;28;20193;-81
2022/09/10 07:43:39;;;;;;;4.47;1.20;;;;;;;15.38;81.85;95527.13;5013258;28;20277;-80
2022/09/10 07:46:05;;;;;;;5.25;1.20;;;;;;;15.46;81.24;95533.09;4996469;28;20201;-79
2022/09/10 07:48:31;;;;;;;3.28;1.10;;;;;;;15.11;80.83;95528.50;5013025;28;20223;-81
2022/09/10 07:51:03;;;;;;;3.22;1.00;;;;;;;15.29;81.03;95537.66;5013206;28;20231;-80
2022/09/10 07:53:29;;;;;;;5.88;1.60;;;;;;;15.23;79.81;95533.13;5012797;28;20186;-79
2022/09/10 07:56:05;;;;;;;4.65;1.10;;;;;;;15.66;79.16;95535.22;4990650;28;20191;-81
2022/09/10 07:58:32;;;;;;;3.22;1.10;;;;;;;15.54;78.81;95540.03;4991826;28;20202;-83
2022/09/10 08:00:58;;;;;;;4.57;1.17;;;;;;;15.83;76.77;95534.06;4996168;28;20273;-83
2022/09/10 08:03:25;;;;;;;3.97;1.60;;;;;;;15.80;76.24;95542.25;5010925;28;20232;-83
2022/09/10 08:05:50;;;;;;;4.47;1.17;;;;;;;15.85;75.79;95540.75;5012435;28;20183;-82
2022/09/10 08:08:15;;;;;;;9.05;1.45;;;;;;;16.26;74.88;95545.53;5016014;28;20210;-83
2022/09/10 08:10:41;;;;;;;4.57;1.30;;;;;;;16.59;74.23;95540.66;5034243;28;20183;-82
2022/09/10 08:13:06;;;;;;;3.50;1.08;;;;;;;16.94;72.97;95548.72;4998922;28;20924;-83
2022/09/10 08:15:32;;;;;;;3.03;1.08;;;;;;;16.97;71.97;95558.84;5015855;28;20236;-81
2022/09/10 08:17:58;;;;;;;3.63;1.50;;;;;;;17.03;72.20;95550.22;5016880;28;20554;-81
2022/09/10 08:20:25;;;;;;;6.32;1.48;;;;;;;16.75;70.38;95550.13;5016237;28;20181;-80
2022/09/10 08:22:50;;;;;;;4.82;1.45;;;;;;;17.03;70.77;95552.03;5015813;28;20182;-82
2022/09/10 08:25:19;;;;;;;3.42;0.98;;;;;;;17.10;70.37;95553.72;5015745;28;20225;-82
2022/09/10 08:27:44;;;;;;;3.55;1.23;;;;;;;17.20;70.04;95556.03;5016440;28;20211;-82
2022/09/10 08:30:10;;;;;;;3.67;1.10;;;;;;;17.48;69.20;95561.31;5017529;28;20550;-81
2022/09/10 08:32:35;;;;;;;6.88;1.33;;;;;;;17.75;68.05;95563.16;5001354;28;20668;-82
2022/09/10 08:35:03;;;;;;;2.05;1.10;;;;;;;17.30;68.16;95561.75;5015338;28;20562;-82
2022/09/10 08:37:29;;;;;;;5.43;1.13;;;;;;;17.44;68.26;95565.31;5016622;28;20699;-81
2022/09/10 08:39:55;;;;;;;3.35;0.95;;;;;;;16.95;68.97;95561.63;5015647;28;20186;-81
2022/09/10 08:42:29;;;;;;;7.03;1.25;;;;;;;17.22;68.42;95565.31;4995879;28;20235;-81
2022/09/10 08:45:01;;;;;;;7.20;1.15;;;;;;;17.71;67.74;95572.44;5012985;28;20542;-82
2022/09/10 08:47:52;;;;;;;7.35;1.08;;;;;;;17.28;67.41;95561.16;5015185;28;20238;-82
2022/09/10 08:50:19;;;;;;;4.68;1.52;;;;;;;17.58;67.71;95572.31;4998294;28;20200;-83
2022/09/10 08:53:10;;;;;;;4.47;1.13;;;;;;;17.26;69.16;95571.84;5016371;28;20483;-82
2022/09/10 08:55:38;;;;;;;4.22;1.02;;;;;;;17.12;68.63;95564.81;4998591;28;20285;-83
2022/09/10 08:58:12;;;;;;;6.65;1.52;;;;;;;17.13;69.74;95573.50;4999023;28;20253;-82
2022/09/10 09:00:39;;;;;;;4.50;1.10;;;;;;;16.96;69.35;95570.31;5015597;28;20180;-82
2022/09/10 09:03:24;;;;;;;3.95;1.20;;;;;;;16.85;70.19;95573.44;4997162;28;20559;-79
2022/09/10 09:05:56;;;;;;;4.90;1.10;;;;;;;16.57;71.10;95568.88;5014471;28;20178;-82
2022/09/10 09:08:24;;;;;;;5.93;1.30;;;;;;;16.33;70.44;95571.78;5016301;28;20202;-83
2022/09/10 09:11:33;;;;;;;4.82;1.17;;;;;;;16.14;72.82;95578.41;5016112;28;20639;-82
2022/09/10 09:14:22;;;;;;;3.03;1.10;;;;;;;15.98;73.07;95571.53;4933992;29;20297;-83
2022/09/10 09:17:00;;;;;;;5.60;1.67;;;;;;;16.37;73.25;95580.94;4918738;29;20756;-81
2022/09/10 09:19:36;;;;;;;4.57;1.55;;;;;;;16.40;73.49;95577.94;4901852;29;20237;-83
2022/09/10 09:22:44;;;;;;;8.35;1.35;;;;;;;16.43;73.70;95582.78;4917497;29;20280;-81
2022/09/10 09:25:28;;;;;;;2.85;0.90;;;;;;;16.49;72.84;95571.59;4912856;29;20674;-82
2022/09/10 09:27:57;;;;;;;4.15;1.27;;;;;;;16.53;72.28;95578.09;4932828;29;20325;-81
2022/09/10 09:30:47;;;;;;;4.57;1.40;;;;;;;16.45;73.03;95574.78;4917285;29;20198;-82
2022/09/10 09:33:15;;;;;;;7.28;1.63;;;;;;;16.79;73.03;95580.25;4918477;29;20244;-82
2022/09/10 09:35:47;;;;;;;5.43;1.20;;;;;;;16.69;71.93;95577.09;4917072;29;20202;-82
2022/09/10 09:38:32;;;;;;;3.75;1.15;;;;;;;16.73;73.67;95582.78;4918557;29;20206;-81
2022/09/10 09:40:59;;;;;;;6.28;1.08;;;;;;;16.59;74.95;95581.78;4902408;29;20190;-82
2022/09/10 09:43:37;;;;;;;4.50;1.48;;;;;;;16.72;73.54;95574.13;4916701;29;20633;-82
2022/09/10 09:46:04;;;;;;;5.22;1.10;;;;;;;16.84;72.22;95577.06;4933374;29;20717;-80
2022/09/10 09:48:40;;;;;;;1.73;1.00;;;;;;;16.97;70.75;95578.03;4929853;28;20281;-80
2022/09/10 09:51:09;;;;;;;2.75;1.00;;;;;;;16.61;72.66;95577.19;4997312;28;20213;-82
2022/09/10 09:53:35;;;;;;;4.88;0.90;;;;;;;16.41;73.39;95587.41;5015373;28;20265;-80
2022/09/10 09:56:03;;;;;;;4.30;1.10;;;;;;;16.88;73.38;95587.00;5011467;28;20234;-80
2022/09/10 09:58:31;;;;;;;3.05;1.35;;;;;;;16.69;74.30;95582.31;5029740;28;20199;-80
2022/09/10 10:01:02;;;;;;;4.25;0.95;;;;;;;17.14;72.33;95591.72;5015226;28;20183;-81
2022/09/10 10:03:28;;;;;;;3.70;1.13;;;;;;;17.19;72.03;95588.50;5027334;28;20217;-80
2022/09/10 10:06:08;;;;;;;2.92;0.80;;;;;;;16.89;73.01;95588.63;5029054;28;20178;-82
2022/09/10 10:08:44;;;;;;;6.15;0.98;;;;;;;16.83;74.18;95585.94;5033847;28;20279;-82
2022/09/10 10:11:15;;;;;;;3.17;1.10;;;;;;;17.08;74.01;95583.78;4999759;28;20189;-83
2022/09/10 10:13:42;;;;;;;6.32;1.10;;;;;;;17.30;73.04;95580.13;5014539;28;20183;-82
2022/09/10 10:16:21;;;;;;;2.97;0.95;;;;;;;17.48;71.32;95584.94;5014572;28;20248;-82
2022/09/10 10:18:47;;;;;;;2.35;0.93;;;;;;;17.38;71.02;95585.25;4997180;28;20303;-81
2022/09/10 10:21:22;;;;;;;3.60;1.10;;;;;;;17.61;70.24;95590.31;4999860;28;20225;-80
2022/09/10 10:23:47;;;;;;;1.58;0.75;;;;;;;17.58;70.09;95577.56;4997695;28;20182;-82
2022/09/10 10:26:16;;;;;;;9.00;1.10;;;;;;;18.11;69.18;95578.78;4999127;28;20186;-80
2022/09/10 10:28:49;;;;;;;2.78;0.70;;;;;;;17.74;67.21;95574.66;5031815;28;20293;-80
2022/09/10 10:31:15;;;;;;;3.30;0.95;;;;;;;18.06;66.57;95580.34;4996912;28;20181;-80
2022/09/10 10:33:58;;;;;;;2.95;0.77;;;;;;;18.10;65.93;95571.06;5013524;28;20183;-79
2022/09/10 10:36:36;;;;;;;2.35;0.88;;;;;;;18.01;65.93;95577.47;4997822;28;20565;-82
2022/09/10 10:39:09;;;;;;;4.05;1.08;;;;;;;17.44;66.39;95566.13;5015158;28;20186;-81
2022/09/10 10:41:45;;;;;;;2.13;0.80;;;;;;;17.93;64.92;95562.66;5015828;28;20209;-81
2022/09/10 10:44:16;;;;;;;2.08;1.00;;;;;;;17.93;65.28;95565.28;5015819;28;20208;-80
2022/09/10 10:46:47;;;;;;;3.70;0.68;;;;;;;18.15;62.56;95562.59;5015637;28;20223;-81
2022/09/10 10:49:40;;;;;;;4.57;1.05;;;;;;;17.97;63.91;95558.66;5015890;28;20186;-82
2022/09/10 10:52:14;;;;;;;2.40;0.80;;;;;;;18.32;63.99;95551.56;5026908;28;20591;-80
2022/09/10 10:54:45;;;;;;;1.33;0.57;;;;;;;18.66;61.71;95552.56;5033382;28;20217;-79
2022/09/10 10:57:26;;;;;;;1.42;0.68;;;;;;;18.44;63.33;95554.44;5032811;28;20202;-82
2022/09/10 10:59:55;;;;;;;3.17;1.00;;;;;;;18.81;62.47;95562.91;5013740;28;20221;-79
2022/09/10 11:02:35;;;;;;;2.42;1.00;;;;;;;18.46;63.22;95557.69;5014051;28;20658;-81
2022/09/10 11:05:05;;;;;;;2.92;1.20;;;;;;;18.73;62.36;95563.91;4993453;28;20213;-80
2022/09/10 11:07:39;;;;;;;5.93;1.40;;;;;;;18.07;63.76;95561.75;5013537;28;20750;-81
2022/09/10 11:10:57;;;;;;;3.35;1.00;;;;;;;17.67;65.72;95563.28;5013695;28;20190;-81
2022/09/10 11:13:44;;;;;;;6.28;1.30;;;;;;;17.04;68.05;95559.69;4983308;28;20198;-80
2022/09/10 11:16:25;;;;;;;3.05;0.93;;;;;;;17.63;66.90;95564.66;4994526;28;20245;-81
2022/09/10 11:18:56;;;;;;;6.40;1.20;;;;;;;17.56;65.43;95545.41;4999428;28;20182;-79
2022/09/10 11:21:33;;;;;;;1.38;1.10;;;;;;;17.88;65.20;95564.25;5031137;28;20220;-79
2022/09/10 11:24:03;;;;;;;2.97;1.13;;;;;;;17.66;66.75;95558.22;5012173;28;20273;-80
2022/09/10 11:26:50;;;;;;;3.20;1.10;;;;;;;18.13;64.61;95562.81;4993359;28;20605;-81
2022/09/10 11:29:21;;;;;;;3.70;1.00;;;;;;;17.88;64.77;95556.38;5033275;28;20193;-81
2022/09/10 11:31:52;;;;;;;3.25;1.10;;;;;;;18.30;63.65;95550.16;5014301;28;20659;-81
2022/09/10 11:34:31;;;;;;;2.63;1.00;;;;;;;18.55;63.31;95556.53;5012363;28;20270;-81
2022/09/10 11:37:23;;;;;;;3.88;1.00;;;;;;;18.16;62.39;95556.34;5012381;28;20569;-79
2022/09/10 11:39:51;;;;;;;4.00;1.00;;;;;;;17.96;63.64;95548.34;4997206;28;20178;-81
2022/09/10 11:42:25;;;;;;;4.15;1.05;;;;;;;18.07;63.99;95545.97;4998685;28;20182;-82